createdAt,value
2017-11-14T00:00:06.722Z,66.40
2017-11-14T00:01:07.996Z,66.40
2017-11-14T00:02:09.317Z,66.40
2017-11-14T00:03:11.360Z,66.20
2017-11-14T00:04:13.688Z,66.50
2017-11-14T00:05:15.729Z,66.70
2017-11-14T00:06:17.024Z,66.60
2017-11-14T00:07:19.087Z,66.90
2017-11-14T00:08:21.127Z,67.00
2017-11-14T00:09:23.185Z,67.10
2017-11-14T00:10:25.210Z,67.10
2017-11-14T00:11:26.520Z,67.10
2017-11-14T00:12:27.827Z,67.10
2017-11-14T00:13:29.862Z,67.30
2017-11-14T00:14:31.440Z,67.20
2017-11-14T00:15:32.719Z,67.20
2017-11-14T00:16:34.748Z,67.40
2017-11-14T00:17:36.068Z,67.30
2017-11-14T00:18:37.370Z,67.30
2017-11-14T00:19:38.726Z,67.30
2017-11-14T00:20:40.749Z,67.10
2017-11-14T00:21:42.049Z,67.10
2017-11-14T00:22:43.333Z,66.90
2017-11-14T00:23:44.617Z,66.90
2017-11-14T00:24:46.188Z,67.10
2017-11-14T00:25:47.476Z,67.40
2017-11-14T00:26:49.516Z,67.70
2017-11-14T00:27:51.550Z,67.60
2017-11-14T00:28:52.840Z,67.40
2017-11-14T00:29:54.169Z,67.20
2017-11-14T00:30:55.468Z,67.10
2017-11-14T00:31:56.761Z,67.20
2017-11-14T00:32:58.046Z,67.30
2017-11-14T00:33:59.328Z,67.10
2017-11-14T00:35:00.898Z,67.30
2017-11-14T00:36:02.945Z,67.10
2017-11-14T00:37:04.237Z,67.10
2017-11-14T00:38:06.268Z,67.10
2017-11-14T00:39:07.574Z,67.10
2017-11-14T00:40:09.195Z,67.20
2017-11-14T00:41:10.474Z,67.20
2017-11-14T00:42:11.777Z,67.10
2017-11-14T00:43:13.069Z,67.10
2017-11-14T00:44:14.372Z,67.20
2017-11-14T00:45:16.005Z,67.40
2017-11-14T00:46:17.320Z,68.10
2017-11-14T00:47:18.629Z,67.50
2017-11-14T00:48:19.910Z,67.70
2017-11-14T00:49:21.209Z,67.90
2017-11-14T00:50:23.825Z,68.30
2017-11-14T00:51:25.124Z,68.30
2017-11-14T00:52:27.160Z,68.50
2017-11-14T00:53:28.468Z,68.40
2017-11-14T00:54:29.757Z,68.60
2017-11-14T00:55:32.353Z,68.50
2017-11-14T00:56:33.628Z,68.40
2017-11-14T00:57:34.951Z,68.20
2017-11-14T00:58:36.241Z,68.30
2017-11-14T00:59:38.343Z,68.20
2017-11-14T01:00:39.912Z,68.20
2017-11-14T01:01:41.188Z,68.20
2017-11-14T01:02:42.480Z,68.30
2017-11-14T01:03:43.793Z,68.40
2017-11-14T01:04:45.090Z,68.20
2017-11-14T01:05:47.157Z,67.90
2017-11-14T01:06:48.460Z,67.80
2017-11-14T01:07:49.749Z,67.90
2017-11-14T01:08:51.042Z,67.70
2017-11-14T01:09:53.079Z,67.40
2017-11-14T01:10:54.680Z,67.40
2017-11-14T01:11:55.962Z,67.50
2017-11-14T01:12:57.248Z,67.50
2017-11-14T01:13:58.548Z,67.50
2017-11-14T01:14:59.828Z,67.40
2017-11-14T01:16:01.481Z,67.60
2017-11-14T01:17:02.778Z,67.30
2017-11-14T01:18:04.818Z,67.30
2017-11-14T01:19:06.115Z,67.20
2017-11-14T01:20:07.416Z,67.40
2017-11-14T01:21:09.804Z,67.00
2017-11-14T01:22:11.097Z,67.00
2017-11-14T01:23:12.384Z,66.90
2017-11-14T01:24:13.673Z,67.20
2017-11-14T01:25:14.957Z,67.10
2017-11-14T01:26:16.537Z,67.10
2017-11-14T01:27:17.831Z,67.20
2017-11-14T01:28:19.121Z,67.10
2017-11-14T01:29:20.416Z,67.00
2017-11-14T01:30:21.714Z,67.10
2017-11-14T01:31:24.114Z,67.00
2017-11-14T01:32:25.413Z,67.00
2017-11-14T01:33:27.473Z,66.90
2017-11-14T01:34:29.517Z,66.80
2017-11-14T01:35:31.553Z,66.70
2017-11-14T01:36:33.159Z,66.70
2017-11-14T01:37:34.428Z,66.90
2017-11-14T01:38:35.727Z,66.90
2017-11-14T01:39:37.024Z,66.90
2017-11-14T01:40:38.303Z,67.00
2017-11-14T01:41:40.089Z,66.80
2017-11-14T01:42:41.398Z,67.00
2017-11-14T01:43:42.702Z,67.10
2017-11-14T01:44:44.783Z,67.00
2017-11-14T01:45:46.131Z,67.00
2017-11-14T01:46:47.728Z,67.10
2017-11-14T01:47:49.805Z,67.10
2017-11-14T01:48:51.107Z,67.00
2017-11-14T01:49:52.433Z,67.30
2017-11-14T01:50:53.750Z,67.30
2017-11-14T01:51:55.390Z,67.40
2017-11-14T01:52:56.713Z,67.30
2017-11-14T01:53:58.013Z,67.00
2017-11-14T01:54:59.299Z,66.90
2017-11-14T01:56:00.604Z,66.80
2017-11-14T01:57:02.957Z,66.70
2017-11-14T01:58:05.017Z,66.80
2017-11-14T01:59:07.096Z,66.90
2017-11-14T02:00:08.489Z,66.70
2017-11-14T02:01:09.789Z,66.60
2017-11-14T02:02:11.385Z,66.70
2017-11-14T02:03:13.430Z,66.90
2017-11-14T02:04:14.745Z,66.80
2017-11-14T02:05:16.060Z,67.00
2017-11-14T02:06:17.372Z,66.90
2017-11-14T02:07:18.969Z,66.80
2017-11-14T02:08:20.316Z,66.90
2017-11-14T02:09:21.673Z,67.00
2017-11-14T02:10:23.760Z,67.40
2017-11-14T02:11:25.154Z,67.10
2017-11-14T02:12:26.698Z,67.00
2017-11-14T02:13:28.016Z,67.40
2017-11-14T02:14:29.336Z,66.60
2017-11-14T02:15:30.688Z,66.60
2017-11-14T02:16:31.993Z,66.40
2017-11-14T02:17:33.593Z,67.10
2017-11-14T02:18:34.882Z,66.50
2017-11-14T02:19:36.213Z,66.40
2017-11-14T02:20:37.519Z,66.30
2017-11-14T02:21:39.583Z,67.10
2017-11-14T02:22:41.962Z,66.30
2017-11-14T02:23:43.293Z,66.40
2017-11-14T02:24:45.381Z,66.40
2017-11-14T02:25:46.749Z,66.30
2017-11-14T02:26:54.117Z,66.50
2017-11-14T02:27:55.482Z,66.60
2017-11-14T02:28:56.810Z,66.70
2017-11-14T02:29:58.150Z,66.60
2017-11-14T02:30:59.491Z,66.50
2017-11-14T02:32:00.838Z,66.70
2017-11-14T02:33:02.450Z,66.70
2017-11-14T02:34:03.767Z,67.10
2017-11-14T02:35:05.104Z,66.80
2017-11-14T02:36:06.425Z,66.60
2017-11-14T02:37:07.758Z,66.70
2017-11-14T02:38:10.118Z,66.70
2017-11-14T02:39:12.179Z,66.70
2017-11-14T02:40:13.522Z,66.70
2017-11-14T02:41:14.840Z,66.70
2017-11-14T02:42:16.901Z,66.60
2017-11-14T02:43:19.256Z,66.80
2017-11-14T02:44:21.341Z,66.70
2017-11-14T02:45:22.706Z,66.50
2017-11-14T02:46:24.066Z,66.40
2017-11-14T02:47:25.395Z,66.40
2017-11-14T02:48:27.055Z,66.50
2017-11-14T02:49:28.404Z,66.60
2017-11-14T02:50:29.737Z,66.80
2017-11-14T02:51:31.066Z,67.00
2017-11-14T02:52:32.412Z,66.90
2017-11-14T02:53:34.053Z,67.20
2017-11-14T02:54:35.401Z,67.30
2017-11-14T02:55:36.694Z,67.50
2017-11-14T02:56:38.018Z,67.60
2017-11-14T02:57:39.336Z,68.00
2017-11-14T02:58:40.961Z,68.20
2017-11-14T02:59:42.266Z,68.40
2017-11-14T03:00:44.306Z,68.40
2017-11-14T03:01:45.614Z,68.40
2017-11-14T03:02:46.917Z,68.40
2017-11-14T03:03:48.489Z,68.40
2017-11-14T03:04:49.800Z,68.40
2017-11-14T03:05:51.096Z,68.20
2017-11-14T03:06:52.392Z,68.20
2017-11-14T03:07:54.449Z,68.20
2017-11-14T03:08:56.888Z,68.30
2017-11-14T03:09:58.233Z,68.30
2017-11-14T03:10:59.573Z,68.50
2017-11-14T03:12:00.898Z,68.40
2017-11-14T03:13:02.229Z,68.50
2017-11-14T03:14:03.830Z,68.60
2017-11-14T03:15:05.132Z,68.70
2017-11-14T03:16:06.453Z,68.80
2017-11-14T03:17:07.797Z,69.10
2017-11-14T03:18:09.133Z,69.20
2017-11-14T03:19:10.751Z,69.20
2017-11-14T03:20:12.073Z,69.20
2017-11-14T03:21:13.385Z,69.20
2017-11-14T03:22:15.461Z,68.80
2017-11-14T03:23:16.796Z,68.70
2017-11-14T03:24:18.414Z,68.50
2017-11-14T03:25:19.752Z,68.40
2017-11-14T03:26:21.789Z,68.20
2017-11-14T03:27:23.125Z,68.20
2017-11-14T03:28:24.438Z,68.10
2017-11-14T03:29:26.066Z,68.10
2017-11-14T03:30:27.404Z,68.00
2017-11-14T03:31:28.753Z,68.10
2017-11-14T03:32:30.102Z,68.10
2017-11-14T03:33:31.415Z,68.00
2017-11-14T03:34:33.016Z,67.80
2017-11-14T03:35:34.330Z,67.80
2017-11-14T03:36:35.644Z,67.90
2017-11-14T03:37:37.236Z,67.90
2017-11-14T03:38:38.554Z,68.00
2017-11-14T03:39:40.890Z,68.00
2017-11-14T03:40:42.200Z,68.00
2017-11-14T03:41:44.263Z,68.00
2017-11-14T03:42:45.568Z,68.00
2017-11-14T03:43:46.881Z,68.00
2017-11-14T03:44:48.500Z,68.10
2017-11-14T03:45:49.845Z,68.10
2017-11-14T03:46:51.173Z,68.00
2017-11-14T03:47:52.516Z,67.90
2017-11-14T03:48:53.809Z,67.60
2017-11-14T03:49:56.234Z,67.80
2017-11-14T03:50:57.580Z,67.10
2017-11-14T03:51:58.897Z,66.90
2017-11-14T03:53:00.236Z,66.90
2017-11-14T03:54:01.569Z,66.90
2017-11-14T03:55:10.180Z,66.70
2017-11-14T03:56:11.489Z,66.60
2017-11-14T03:57:12.829Z,66.40
2017-11-14T03:58:14.145Z,66.60
2017-11-14T03:59:15.470Z,66.70
2017-11-14T04:00:17.176Z,67.10
2017-11-14T04:01:18.461Z,66.80
2017-11-14T04:02:19.791Z,66.80
2017-11-14T04:03:21.079Z,66.70
2017-11-14T04:04:22.404Z,66.60
2017-11-14T04:05:24.022Z,66.30
2017-11-14T04:06:25.353Z,66.30
2017-11-14T04:07:26.675Z,66.30
2017-11-14T04:08:27.992Z,66.30
2017-11-14T04:09:29.325Z,66.30
2017-11-14T04:10:30.913Z,66.30
2017-11-14T04:11:32.233Z,66.10
2017-11-14T04:12:33.556Z,66.20
2017-11-14T04:13:34.889Z,66.90
2017-11-14T04:14:36.201Z,66.30
2017-11-14T04:15:37.779Z,66.40
2017-11-14T04:16:39.096Z,66.40
2017-11-14T04:17:40.396Z,66.40
2017-11-14T04:18:42.481Z,66.60
2017-11-14T04:19:43.781Z,66.40
2017-11-14T04:20:45.337Z,66.40
2017-11-14T04:21:47.389Z,66.20
2017-11-14T04:22:49.443Z,66.20
2017-11-14T04:23:51.486Z,66.30
2017-11-14T04:24:52.776Z,66.20
2017-11-14T04:25:54.363Z,66.30
2017-11-14T04:26:56.416Z,66.20
2017-11-14T04:27:57.714Z,66.10
2017-11-14T04:28:59.012Z,66.20
2017-11-14T04:30:01.053Z,66.10
2017-11-14T04:31:02.663Z,66.10
2017-11-14T04:32:03.965Z,66.10
2017-11-14T04:33:05.314Z,66.00
2017-11-14T04:34:06.621Z,66.80
2017-11-14T04:35:08.697Z,66.20
2017-11-14T04:36:10.480Z,66.20
2017-11-14T04:37:11.769Z,66.10
2017-11-14T04:38:14.416Z,65.70
2017-11-14T04:39:15.729Z,65.60
2017-11-14T04:40:17.016Z,66.40
2017-11-14T04:41:19.621Z,65.70
2017-11-14T04:42:20.923Z,65.70
2017-11-14T04:43:22.963Z,65.90
2017-11-14T04:44:24.303Z,65.90
2017-11-14T04:45:25.605Z,65.90
2017-11-14T04:46:27.676Z,65.70
2017-11-14T04:47:28.969Z,66.30
2017-11-14T04:48:30.350Z,65.70
2017-11-14T04:49:31.664Z,65.70
2017-11-14T04:50:32.950Z,65.70
2017-11-14T04:51:34.539Z,65.70
2017-11-14T04:52:35.845Z,65.80
2017-11-14T04:53:37.886Z,66.20
2017-11-14T04:54:39.940Z,66.20
2017-11-14T04:55:41.241Z,66.20
2017-11-14T04:56:42.868Z,66.30
2017-11-14T04:57:44.170Z,66.20
2017-11-14T04:58:46.225Z,65.90
2017-11-14T04:59:48.286Z,65.70
2017-11-14T05:00:50.328Z,65.70
2017-11-14T05:01:52.651Z,65.90
2017-11-14T05:02:53.955Z,65.90
2017-11-14T05:03:55.240Z,65.90
2017-11-14T05:04:56.533Z,66.00
2017-11-14T05:05:57.821Z,66.00
2017-11-14T05:06:59.149Z,66.10
2017-11-14T05:08:00.435Z,66.10
2017-11-14T05:09:01.743Z,66.00
2017-11-14T05:10:03.063Z,66.00
2017-11-14T05:11:04.348Z,66.00
2017-11-14T05:12:05.669Z,66.00
2017-11-14T05:13:07.723Z,66.00
2017-11-14T05:14:09.753Z,65.80
2017-11-14T05:15:11.068Z,65.80
2017-11-14T05:16:12.369Z,65.60
2017-11-14T05:17:14.045Z,65.70
2017-11-14T05:18:15.350Z,65.70
2017-11-14T05:19:16.643Z,65.60
2017-11-14T05:20:17.937Z,65.50
2017-11-14T05:21:19.275Z,65.40
2017-11-14T05:22:20.935Z,65.50
2017-11-14T05:23:22.248Z,65.50
2017-11-14T05:24:23.580Z,65.50
2017-11-14T05:25:24.935Z,65.50
2017-11-14T05:26:26.241Z,65.60
2017-11-14T05:27:28.323Z,65.90
2017-11-14T05:28:29.650Z,65.60
2017-11-14T05:29:31.684Z,65.80
2017-11-14T05:30:32.998Z,65.70
2017-11-14T05:31:34.317Z,65.70
2017-11-14T05:32:35.977Z,65.50
2017-11-14T05:33:37.353Z,65.50
2017-11-14T05:34:39.394Z,65.50
2017-11-14T05:35:40.755Z,65.50
2017-11-14T05:36:42.788Z,65.30
2017-11-14T05:37:44.916Z,65.30
2017-11-14T05:38:46.199Z,65.30
2017-11-14T05:39:48.227Z,65.20
2017-11-14T05:40:49.532Z,65.20
2017-11-14T05:41:50.845Z,65.20
2017-11-14T05:42:52.173Z,65.30
2017-11-14T05:43:54.225Z,65.20
2017-11-14T05:44:55.521Z,65.20
2017-11-14T05:45:56.844Z,65.10
2017-11-14T05:46:58.136Z,65.10
2017-11-14T05:48:00.209Z,65.10
2017-11-14T05:49:01.520Z,65.10
2017-11-14T05:50:03.560Z,66.00
2017-11-14T05:51:04.856Z,65.30
2017-11-14T05:52:06.157Z,65.50
2017-11-14T05:53:08.492Z,65.40
2017-11-14T05:54:09.852Z,65.40
2017-11-14T05:55:11.880Z,65.60
2017-11-14T05:56:13.183Z,65.50
2017-11-14T05:57:14.502Z,65.70
2017-11-14T05:58:15.857Z,65.70
2017-11-14T05:59:17.177Z,65.70
2017-11-14T06:00:18.540Z,66.40
2017-11-14T06:01:19.842Z,65.70
2017-11-14T06:02:21.884Z,65.70
2017-11-14T06:03:24.333Z,65.80
2017-11-14T06:04:25.648Z,65.80
2017-11-14T06:05:26.950Z,65.90
2017-11-14T06:06:28.260Z,65.80
2017-11-14T06:07:29.556Z,65.80
2017-11-14T06:08:31.165Z,65.80
2017-11-14T06:09:33.206Z,65.70
2017-11-14T06:10:35.252Z,65.80
2017-11-14T06:11:36.544Z,65.70
2017-11-14T06:12:37.900Z,65.90
2017-11-14T06:13:39.637Z,65.70
2017-11-14T06:14:40.949Z,65.50
2017-11-14T06:15:42.276Z,65.20
2017-11-14T06:16:43.621Z,65.20
2017-11-14T06:17:44.901Z,65.30
2017-11-14T06:18:46.534Z,65.20
2017-11-14T06:19:47.917Z,65.30
2017-11-14T06:20:49.947Z,65.30
2017-11-14T06:21:51.236Z,65.10
2017-11-14T06:22:52.513Z,65.40
2017-11-14T06:23:53.822Z,65.80
2017-11-14T06:24:55.126Z,65.60
2017-11-14T06:25:57.147Z,65.80
2017-11-14T06:26:58.433Z,65.70
2017-11-14T06:27:59.740Z,65.70
2017-11-14T06:29:01.333Z,65.70
2017-11-14T06:30:02.680Z,65.70
2017-11-14T06:31:03.979Z,65.70
2017-11-14T06:32:06.013Z,65.90
2017-11-14T06:33:07.296Z,65.80
2017-11-14T06:34:08.622Z,65.70
2017-11-14T06:35:09.945Z,65.80
2017-11-14T06:36:11.996Z,65.90
2017-11-14T06:37:14.047Z,65.80
2017-11-14T06:38:16.088Z,66.10
2017-11-14T06:39:17.404Z,65.90
2017-11-14T06:40:18.700Z,66.40
2017-11-14T06:41:19.993Z,66.10
2017-11-14T06:42:21.286Z,66.20
2017-11-14T06:43:22.592Z,66.20
2017-11-14T06:44:24.852Z,65.90
2017-11-14T06:45:26.886Z,65.80
2017-11-14T06:46:28.206Z,65.70
2017-11-14T06:47:29.491Z,65.60
2017-11-14T06:48:31.532Z,65.40
2017-11-14T06:49:33.592Z,65.40
2017-11-14T06:50:35.641Z,65.40
2017-11-14T06:51:36.932Z,65.40
2017-11-14T06:52:38.209Z,65.40
2017-11-14T06:53:39.490Z,65.40
2017-11-14T06:54:40.817Z,65.30
2017-11-14T06:55:42.116Z,65.30
2017-11-14T06:56:43.396Z,66.10
2017-11-14T06:57:44.705Z,64.90
2017-11-14T06:58:46.015Z,64.50
2017-11-14T06:59:47.336Z,64.50
2017-11-14T07:00:48.695Z,64.90
2017-11-14T07:01:49.985Z,65.30
2017-11-14T07:02:51.286Z,65.50
2017-11-14T07:03:52.570Z,64.70
2017-11-14T07:04:53.910Z,64.70
2017-11-14T07:05:55.204Z,64.20
2017-11-14T07:06:57.245Z,63.00
2017-11-14T07:07:58.530Z,62.90
2017-11-14T07:08:59.813Z,62.30
2017-11-14T07:10:01.737Z,61.70
2017-11-14T07:11:03.028Z,61.50
2017-11-14T07:12:05.058Z,60.00
2017-11-14T07:13:06.338Z,60.00
2017-11-14T07:14:07.616Z,59.30
2017-11-14T07:15:09.018Z,58.80
2017-11-14T07:16:10.302Z,58.10
2017-11-14T07:17:11.603Z,57.50
2017-11-14T07:18:12.894Z,57.00
2017-11-14T07:19:14.189Z,57.10
2017-11-14T07:20:15.511Z,56.40
2017-11-14T07:21:16.827Z,55.90
2017-11-14T07:22:18.851Z,54.90
2017-11-14T07:23:20.168Z,54.80
2017-11-14T07:24:21.481Z,54.30
2017-11-14T07:25:22.933Z,53.70
2017-11-14T07:26:24.215Z,53.00
2017-11-14T07:27:25.507Z,52.40
2017-11-14T07:28:26.793Z,52.10
2017-11-14T07:29:28.087Z,51.90
2017-11-14T07:30:29.666Z,51.70
2017-11-14T07:31:30.964Z,51.70
2017-11-14T07:32:32.261Z,50.30
2017-11-14T07:33:34.386Z,50.50
2017-11-14T07:34:35.685Z,50.30
2017-11-14T07:35:37.257Z,49.80
2017-11-14T07:36:39.305Z,50.00
2017-11-14T07:37:40.602Z,49.90
2017-11-14T07:38:41.901Z,50.00
2017-11-14T07:39:43.196Z,50.20
2017-11-14T07:40:44.790Z,50.10
2017-11-14T07:41:46.087Z,49.00
2017-11-14T07:42:47.375Z,49.00
2017-11-14T07:43:49.409Z,48.80
2017-11-14T07:44:50.717Z,48.80
2017-11-14T07:45:52.289Z,48.80
2017-11-14T07:46:53.580Z,48.50
2017-11-14T07:47:54.874Z,47.80
2017-11-14T07:48:56.171Z,47.90
2017-11-14T07:49:57.456Z,48.40
2017-11-14T07:50:59.036Z,46.90
2017-11-14T07:52:00.335Z,46.80
2017-11-14T07:53:02.402Z,45.80
2017-11-14T07:54:03.728Z,45.70
2017-11-14T07:55:05.049Z,45.50
2017-11-14T07:56:06.657Z,45.40
2017-11-14T07:57:07.945Z,45.10
2017-11-14T07:58:09.240Z,45.40
2017-11-14T07:59:10.517Z,45.30
2017-11-14T08:00:11.841Z,44.50
2017-11-14T08:01:13.441Z,44.30
2017-11-14T08:02:14.758Z,44.10
2017-11-14T08:03:16.823Z,44.20
2017-11-14T08:04:18.169Z,44.10
2017-11-14T08:05:19.483Z,43.20
2017-11-14T08:06:21.884Z,42.30
2017-11-14T08:07:23.175Z,42.20
2017-11-14T08:08:24.474Z,42.00
2017-11-14T08:09:25.807Z,41.90
2017-11-14T08:10:27.105Z,42.00
2017-11-14T08:11:29.402Z,40.90
2017-11-14T08:12:30.733Z,40.80
2017-11-14T08:13:32.030Z,40.70
2017-11-14T08:14:34.074Z,40.30
2017-11-14T08:15:35.358Z,40.20
2017-11-14T08:16:36.713Z,40.40
2017-11-14T08:17:38.005Z,40.40
2017-11-14T08:18:40.036Z,41.10
2017-11-14T08:19:41.337Z,40.50
2017-11-14T08:20:42.648Z,40.60
2017-11-14T08:21:43.994Z,39.10
2017-11-14T08:22:45.284Z,38.50
2017-11-14T08:23:46.571Z,38.30
2017-11-14T08:24:47.872Z,39.00
2017-11-14T08:25:49.160Z,39.10
2017-11-14T08:26:50.775Z,39.70
2017-11-14T08:27:52.816Z,39.30
2017-11-14T08:28:54.862Z,39.30
2017-11-14T08:29:56.929Z,38.70
2017-11-14T08:30:58.981Z,38.30
2017-11-14T08:32:02.160Z,38.30
2017-11-14T08:33:04.196Z,38.30
2017-11-14T08:34:05.493Z,38.20
2017-11-14T08:35:06.776Z,38.20
2017-11-14T08:36:08.061Z,38.10
2017-11-14T08:37:09.641Z,38.40
2017-11-14T08:38:10.956Z,38.70
2017-11-14T08:39:12.293Z,38.00
2017-11-14T08:40:13.637Z,37.80
2017-11-14T08:41:14.969Z,38.00
2017-11-14T08:42:16.612Z,38.40
2017-11-14T08:43:17.922Z,38.30
2017-11-14T08:44:19.269Z,38.90
2017-11-14T08:45:20.588Z,38.30
2017-11-14T08:46:22.628Z,37.80
2017-11-14T08:47:25.046Z,37.80
2017-11-14T08:48:26.357Z,37.70
2017-11-14T08:49:27.653Z,37.80
2017-11-14T08:50:28.946Z,37.60
2017-11-14T08:51:30.312Z,37.90
2017-11-14T08:52:31.652Z,37.70
2017-11-14T08:53:32.934Z,37.50
2017-11-14T08:54:34.970Z,37.20
2017-11-14T08:55:36.261Z,37.10
2017-11-14T08:56:37.585Z,37.10
2017-11-14T08:57:38.953Z,36.80
2017-11-14T08:58:40.278Z,36.80
2017-11-14T08:59:41.596Z,36.40
2017-11-14T09:00:42.905Z,36.40
2017-11-14T09:01:44.273Z,37.20
2017-11-14T09:02:45.888Z,36.40
2017-11-14T09:03:47.205Z,36.60
2017-11-14T09:04:48.507Z,35.80
2017-11-14T09:05:49.840Z,36.60
2017-11-14T09:06:51.141Z,36.90
2017-11-14T09:07:52.734Z,36.90
2017-11-14T09:08:54.084Z,36.90
2017-11-14T09:09:55.396Z,37.30
2017-11-14T09:10:56.738Z,37.50
2017-11-14T09:11:58.073Z,38.70
2017-11-14T09:12:59.731Z,38.80
2017-11-14T09:14:01.089Z,38.50
2017-11-14T09:15:02.412Z,38.40
2017-11-14T09:16:03.754Z,38.40
2017-11-14T09:17:05.078Z,38.80
2017-11-14T09:18:06.428Z,39.70
2017-11-14T09:19:07.768Z,39.50
2017-11-14T09:20:09.137Z,39.30
2017-11-14T09:21:10.461Z,39.60
2017-11-14T09:22:11.808Z,40.20
2017-11-14T09:23:13.150Z,40.70
2017-11-14T09:24:14.490Z,41.40
2017-11-14T09:25:15.840Z,41.50
2017-11-14T09:26:17.164Z,40.90
2017-11-14T09:27:18.503Z,40.90
2017-11-14T09:28:20.115Z,41.30
2017-11-14T09:29:21.440Z,41.90
2017-11-14T09:30:22.765Z,42.20
2017-11-14T09:31:24.110Z,43.60
2017-11-14T09:32:25.466Z,43.00
2017-11-14T09:33:27.109Z,43.20
2017-11-14T09:34:28.429Z,42.80
2017-11-14T09:35:29.751Z,43.20
2017-11-14T09:36:31.828Z,43.50
2017-11-14T09:37:33.154Z,43.40
2017-11-14T09:38:34.781Z,43.30
2017-11-14T09:39:36.829Z,44.60
2017-11-14T09:40:38.205Z,44.50
2017-11-14T09:41:39.555Z,43.60
2017-11-14T09:42:40.896Z,44.90
2017-11-14T09:43:42.266Z,45.30
2017-11-14T09:44:43.612Z,45.00
2017-11-14T09:45:44.945Z,44.90
2017-11-14T09:46:46.304Z,44.10
2017-11-14T09:47:48.392Z,44.60
2017-11-14T09:48:50.261Z,44.50
2017-11-14T09:49:51.590Z,44.90
2017-11-14T09:50:52.925Z,44.60
2017-11-14T09:51:54.294Z,44.60
2017-11-14T09:52:55.626Z,44.40
2017-11-14T09:53:57.244Z,45.70
2017-11-14T09:54:58.596Z,45.90
2017-11-14T09:55:59.929Z,46.10
2017-11-14T09:57:01.272Z,46.10
2017-11-14T09:58:02.622Z,46.20
2017-11-14T09:59:04.259Z,45.30
2017-11-14T10:00:05.608Z,45.40
2017-11-14T10:01:06.940Z,46.10
2017-11-14T10:02:08.410Z,46.50
2017-11-14T10:03:09.776Z,46.10
2017-11-14T10:04:12.173Z,46.30
2017-11-14T10:05:13.519Z,46.20
2017-11-14T10:06:14.870Z,46.00
2017-11-14T10:07:16.216Z,46.20
2017-11-14T10:08:17.586Z,46.00
2017-11-14T10:09:19.701Z,45.20
2017-11-14T10:10:21.018Z,45.00
2017-11-14T10:11:22.404Z,45.20
2017-11-14T10:12:23.761Z,45.20
2017-11-14T10:13:25.849Z,46.10
2017-11-14T10:14:27.499Z,46.10
2017-11-14T10:15:28.861Z,47.40
2017-11-14T10:16:30.219Z,47.30
2017-11-14T10:17:31.553Z,47.60
2017-11-14T10:18:32.890Z,47.40
2017-11-14T10:19:34.518Z,47.00
2017-11-14T10:20:36.593Z,46.70
2017-11-14T10:21:37.921Z,46.70
2017-11-14T10:22:39.265Z,47.10
2017-11-14T10:23:40.626Z,46.80
2017-11-14T10:24:42.245Z,46.60
2017-11-14T10:25:44.329Z,46.00
2017-11-14T10:26:46.398Z,46.80
2017-11-14T10:27:47.746Z,46.10
2017-11-14T10:28:49.087Z,46.50
2017-11-14T10:29:51.239Z,47.00
2017-11-14T10:30:52.575Z,47.00
2017-11-14T10:31:54.658Z,46.20
2017-11-14T10:32:56.006Z,46.00
2017-11-14T10:33:58.099Z,47.20
2017-11-14T10:34:59.545Z,47.20
2017-11-14T10:36:00.873Z,47.00
2017-11-14T10:37:02.198Z,47.40
2017-11-14T10:38:03.553Z,47.90
2017-11-14T10:39:04.901Z,47.20
2017-11-14T10:40:07.028Z,47.80
2017-11-14T10:41:08.395Z,47.80
2017-11-14T10:42:10.490Z,48.30
2017-11-14T10:43:11.832Z,47.80
2017-11-14T10:44:13.181Z,47.80
2017-11-14T10:45:14.934Z,47.80
2017-11-14T10:46:16.264Z,47.80
2017-11-14T10:47:17.614Z,47.00
2017-11-14T10:48:18.941Z,46.20
2017-11-14T10:49:20.288Z,46.70
2017-11-14T10:50:22.032Z,47.10
2017-11-14T10:51:23.380Z,46.60
2017-11-14T10:52:24.721Z,47.50
2017-11-14T10:53:26.054Z,48.70
2017-11-14T10:54:27.370Z,49.10
2017-11-14T10:55:28.751Z,46.80
2017-11-14T10:56:30.093Z,44.70
2017-11-14T10:57:31.461Z,46.40
2017-11-14T10:58:33.534Z,45.10
2017-11-14T10:59:34.902Z,45.10
2017-11-14T11:00:38.250Z,45.60
2017-11-14T11:01:39.573Z,46.10
2017-11-14T11:02:41.701Z,45.50
2017-11-14T11:03:43.037Z,45.50
2017-11-14T11:04:44.418Z,45.50
2017-11-14T11:05:46.049Z,47.00
2017-11-14T11:06:48.145Z,45.70
2017-11-14T11:07:49.481Z,45.70
2017-11-14T11:08:50.823Z,45.20
2017-11-14T11:09:52.197Z,45.40
2017-11-14T11:10:53.638Z,45.50
2017-11-14T11:11:54.977Z,45.40
2017-11-14T11:12:56.325Z,45.90
2017-11-14T11:13:57.673Z,47.50
2017-11-14T11:14:59.769Z,50.90
2017-11-14T11:16:02.142Z,51.00
2017-11-14T11:17:03.477Z,51.00
2017-11-14T11:18:04.829Z,51.70
2017-11-14T11:19:06.188Z,52.00
2017-11-14T11:20:07.540Z,51.70
2017-11-14T11:21:08.915Z,52.90
2017-11-14T11:22:10.259Z,52.50
2017-11-14T11:23:11.612Z,52.80
2017-11-14T11:24:12.949Z,51.70
2017-11-14T11:25:14.334Z,50.50
2017-11-14T11:26:15.958Z,49.90
2017-11-14T11:27:17.320Z,49.30
2017-11-14T11:28:18.663Z,49.90
2017-11-14T11:29:20.747Z,50.80
2017-11-14T11:30:22.090Z,50.70
2017-11-14T11:31:23.752Z,51.00
2017-11-14T11:32:25.136Z,49.70
2017-11-14T11:33:26.481Z,49.70
2017-11-14T11:34:28.573Z,49.60
2017-11-14T11:35:29.930Z,49.60
2017-11-14T11:36:32.135Z,50.10
2017-11-14T11:37:34.222Z,49.30
2017-11-14T11:38:35.578Z,49.20
2017-11-14T11:39:36.932Z,49.00
2017-11-14T11:40:38.274Z,49.20
2017-11-14T11:41:39.653Z,49.80
2017-11-14T11:42:41.737Z,50.80
2017-11-14T11:43:43.081Z,50.80
2017-11-14T11:44:44.442Z,50.60
2017-11-14T11:45:45.773Z,50.70
2017-11-14T11:46:47.891Z,51.80
2017-11-14T11:47:49.258Z,51.90
2017-11-14T11:48:50.599Z,52.20
2017-11-14T11:49:51.928Z,52.10
2017-11-14T11:50:53.270Z,50.50
2017-11-14T11:51:54.642Z,49.20
2017-11-14T11:52:56.042Z,49.20
2017-11-14T11:53:57.392Z,50.90
2017-11-14T11:54:58.737Z,51.20
2017-11-14T11:56:00.081Z,51.70
2017-11-14T11:57:01.466Z,52.00
2017-11-14T11:58:03.564Z,49.10
2017-11-14T11:59:04.921Z,49.00
2017-11-14T12:00:06.277Z,48.70
2017-11-14T12:01:07.618Z,48.20
2017-11-14T12:02:08.945Z,48.10
2017-11-14T12:03:10.392Z,48.50
2017-11-14T12:04:11.717Z,48.10
2017-11-14T12:05:13.068Z,50.80
2017-11-14T12:06:14.410Z,51.50
2017-11-14T12:07:15.784Z,51.40
2017-11-14T12:08:17.134Z,51.90
2017-11-14T12:09:18.461Z,52.40
2017-11-14T12:10:19.817Z,52.10
2017-11-14T12:11:21.182Z,52.50
2017-11-14T12:12:23.127Z,51.70
2017-11-14T12:13:24.467Z,52.10
2017-11-14T12:14:25.818Z,51.90
2017-11-14T12:15:27.165Z,51.70
2017-11-14T12:16:28.486Z,51.80
2017-11-14T12:17:29.847Z,52.00
2017-11-14T12:18:31.179Z,51.50
2017-11-14T12:19:32.526Z,51.80
2017-11-14T12:20:33.867Z,51.20
2017-11-14T12:21:35.230Z,51.50
2017-11-14T12:22:37.650Z,52.60
2017-11-14T12:23:39.006Z,52.50
2017-11-14T12:24:40.360Z,52.90
2017-11-14T12:25:42.474Z,53.60
2017-11-14T12:26:43.834Z,53.50
2017-11-14T12:27:45.214Z,53.50
2017-11-14T12:28:46.573Z,53.70
2017-11-14T12:29:47.906Z,53.70
2017-11-14T12:30:49.269Z,54.30
2017-11-14T12:31:51.341Z,53.50
2017-11-14T12:32:52.946Z,53.50
2017-11-14T12:33:54.300Z,54.00
2017-11-14T12:34:55.632Z,54.10
2017-11-14T12:35:56.981Z,53.60
2017-11-14T12:36:58.320Z,53.30
2017-11-14T12:37:59.937Z,53.90
2017-11-14T12:39:01.265Z,53.60
2017-11-14T12:40:02.591Z,53.90
2017-11-14T12:41:04.666Z,53.90
2017-11-14T12:42:06.003Z,53.90
2017-11-14T12:43:07.605Z,54.40
2017-11-14T12:44:08.932Z,53.90
2017-11-14T12:45:10.276Z,53.60
2017-11-14T12:46:11.636Z,53.80
2017-11-14T12:47:12.971Z,53.80
2017-11-14T12:48:14.501Z,54.00
2017-11-14T12:49:15.833Z,54.10
2017-11-14T12:50:17.178Z,54.10
2017-11-14T12:51:18.485Z,54.00
2017-11-14T12:52:19.856Z,54.30
2017-11-14T12:53:21.213Z,54.30
2017-11-14T12:54:23.260Z,53.80
2017-11-14T12:55:24.602Z,53.70
2017-11-14T12:56:26.672Z,54.60
2017-11-14T12:57:28.737Z,53.70
2017-11-14T12:58:30.334Z,53.60
2017-11-14T12:59:31.668Z,53.40
2017-11-14T13:00:33.016Z,53.50
2017-11-14T13:01:34.357Z,53.80
2017-11-14T13:02:35.710Z,53.70
2017-11-14T13:03:37.852Z,54.00
2017-11-14T13:04:39.162Z,53.90
2017-11-14T13:05:40.497Z,54.10
2017-11-14T13:06:41.811Z,54.50
2017-11-14T13:07:43.162Z,54.50
2017-11-14T13:08:44.809Z,54.80
2017-11-14T13:09:46.128Z,54.80
2017-11-14T13:10:48.193Z,54.60
2017-11-14T13:11:49.526Z,54.50